Terminal Aerodrome Forecast
Issued by NWS

Home | Current Version | Previous Version | Graphics & Text | Print | Product List | Glossary On
Versions: 1 2 3 4 5 6 7 8 9 10 11 12 13 14
755
FTUS43 KMPX 281739
TAFRWF
TAF
KRWF 281739Z 2818/2918 36011KT P6SM BKN025
     FM281900 36009KT P6SM BKN035
     FM290100 03004KT P6SM SKC=

USA.gov is the U.S. government's official web portal to all federal, state and local government web resources and services.